Terminal Aerodrome Forecast
Issued by NWS

Home | Current Version | Previous Version | Text Only | Print | Product List | Glossary On
Versions: 1 2 3 4 5 6 7 8 9 10 11 12 13 14 15 16 17 18 19 20 21 22 23 24 25 26 27 28 29
000
FTUS41 KBUF 180500
TAFJHW
TAF
KJHW 180539Z 1806/1906 18003KT 1SM BR FEW040 FEW200
     FM180800 VRB03KT 1SM BR SCT007
      TEMPO 1808/1811 BKN007
     FM181100 VRB03KT 2SM BR SCT007
     FM181300 31004KT P6SM SCT040 BKN200
     FM181600 34008KT P6SM SCT025 BKN040
     FM182100 36008KT P6SM BKN250
     FM190500 09004KT P6SM FEW250
      AMD LTD TO CLD VIS AND WIND=

USA.gov is the U.S. government's official web portal to all federal, state and local government web resources and services.